Time;durP1;ratioP1;P1;durP2;ratioP2;P2;SDS_P1;SDS_P2;PMS_P1;PMS_P2;Temp;Humidity;BMP_temperature;BMP_pressure;BME280_temperature;BME280_humidity;BME280_pressure;Samples;Min_cycle;Max_cycle;Signal;HPM_P1;HPM_P2
2022/02/12 00:01:29;;;;;;;9.00;5.20;;;;;;;1.83;88.24;101301.35;87977;1278;99246;-72
2022/02/12 00:03:55;;;;;;;;;;;;;;;1.83;88.27;101310.57;88023;1280;88389;-72
2022/02/12 00:06:07;;;;;;;10.30;5.00;;;;;;;1.83;88.26;101315.36;88016;1281;93170;-60
2022/02/12 00:08:17;;;;;;;9.70;4.50;;;;;;;1.83;88.10;101323.40;88006;1279;78390;-60
2022/02/12 00:10:29;;;;;;;6.90;4.40;;;;;;;1.80;88.02;101333.48;88133;1277;81693;-72
2022/02/12 00:12:35;;;;;;;6.60;4.10;;;;;;;1.80;88.09;101340.60;88130;1276;99985;-72
2022/02/12 00:14:44;;;;;;;7.40;3.40;;;;;;;1.75;88.01;101340.75;88111;1276;86920;-70
2022/02/12 00:16:53;;;;;;;6.90;3.60;;;;;;;1.69;88.16;101344.79;88113;1277;95000;-71
2022/02/12 00:19:02;;;;;;;5.00;3.10;;;;;;;1.67;88.01;101357.48;88124;1276;78973;-73
2022/02/12 00:21:12;;;;;;;5.70;3.10;;;;;;;1.64;88.04;101366.92;88109;1277;80406;-70
2022/02/12 00:23:21;;;;;;;7.20;3.50;;;;;;;1.64;87.98;101372.15;88131;1276;99584;-70
2022/02/12 00:25:30;;;;;;;6.70;3.70;;;;;;;1.70;87.96;101379.34;88127;1277;87861;-59
2022/02/12 00:27:40;;;;;;;6.80;3.40;;;;;;;1.72;88.07;101384.30;88098;1276;95367;-60
2022/02/12 00:29:49;;;;;;;6.60;3.00;;;;;;;1.68;88.02;101395.42;88118;1277;76983;-60
2022/02/12 00:31:58;;;;;;;5.90;3.00;;;;;;;1.63;88.05;101397.93;88106;1276;81684;-73
2022/02/12 00:34:05;;;;;;;3.80;2.40;;;;;;;1.58;87.67;101402.52;88109;1277;99702;-70
2022/02/12 00:36:11;;;;;;;7.60;3.60;;;;;;;1.53;87.62;101409.67;88131;1276;88797;-73
2022/02/12 00:38:17;;;;;;;5.50;2.40;;;;;;;1.44;87.57;101418.13;88107;1276;95196;-71
2022/02/12 00:40:27;;;;;;;5.50;2.20;;;;;;;1.40;87.60;101415.33;88103;1276;80067;-59
2022/02/12 00:42:36;;;;;;;5.80;2.20;;;;;;;1.40;87.60;101418.71;88116;1276;81299;-61
2022/02/12 00:44:42;;;;;;;3.50;1.90;;;;;;;1.41;87.52;101420.10;88096;1276;99133;-58
2022/02/12 00:46:48;;;;;;;2.90;2.00;;;;;;;1.39;87.47;101420.42;88123;1277;87631;-59
2022/02/12 00:48:54;;;;;;;4.20;2.20;;;;;;;1.35;87.37;101425.63;88107;1276;93543;-60
2022/02/12 00:51:00;;;;;;;4.10;2.50;;;;;;;1.27;87.35;101428.48;88096;1276;76557;-74
2022/02/12 00:53:09;;;;;;;4.40;2.40;;;;;;;1.23;87.44;101433.61;88133;1276;81987;-74
2022/02/12 00:55:19;;;;;;;5.40;3.00;;;;;;;1.17;87.47;101435.60;88140;1276;99473;-59
2022/02/12 00:57:31;;;;;;;6.10;2.60;;;;;;;1.12;87.52;101441.23;87992;1279;86939;-59
2022/02/12 00:59:36;;;;;;;4.80;2.60;;;;;;;1.06;87.46;101439.49;88104;1276;93750;-59
2022/02/12 01:01:45;;;;;;;4.00;2.50;;;;;;;1.02;87.60;101449.05;88078;1276;79393;-59
2022/02/12 01:03:51;;;;;;;5.90;2.50;;;;;;;1.06;87.66;101456.23;88207;1268;81755;-67
2022/02/12 01:06:02;;;;;;;4.90;2.10;;;;;;;1.05;87.77;101464.05;88107;1277;102281;-75
2022/02/12 01:08:10;;;;;;;4.80;2.90;;;;;;;1.08;87.74;101465.45;88082;1277;87564;-74
2022/02/12 01:10:19;;;;;;;3.70;2.30;;;;;;;1.14;87.87;101469.83;88085;1277;95181;-74
2022/02/12 01:12:30;;;;;;;5.40;2.40;;;;;;;1.18;87.89;101476.09;88106;1277;79596;-75
2022/02/12 01:14:36;;;;;;;3.80;2.00;;;;;;;1.20;87.79;101475.48;88084;1278;79881;-59
2022/02/12 01:16:42;;;;;;;5.30;2.30;;;;;;;1.28;87.87;101480.29;88056;1277;99576;-60
2022/02/12 01:18:48;;;;;;;5.80;2.30;;;;;;;1.32;87.84;101481.79;88102;1277;88507;-60
2022/02/12 01:20:54;;;;;;;4.10;2.40;;;;;;;1.28;87.85;101487.20;88069;1277;95615;-75
2022/02/12 01:23:00;;;;;;;3.20;2.00;;;;;;;1.25;87.61;101490.91;88065;1277;77560;-75
2022/02/12 01:25:08;;;;;;;4.80;2.50;;;;;;;1.23;87.60;101496.08;88210;1272;81520;-59
2022/02/12 01:27:17;;;;;;;6.60;2.00;;;;;;;1.16;87.49;101497.94;88224;1272;99804;-59
2022/02/12 01:29:24;;;;;;;3.10;1.80;;;;;;;1.14;87.49;101505.52;88121;1274;89517;-59
2022/02/12 01:31:30;;;;;;;3.40;1.90;;;;;;;1.12;87.58;101510.45;88108;1276;92913;-59
2022/02/12 01:33:38;;;;;;;4.80;1.90;;;;;;;1.15;87.48;101516.05;88153;1276;79088;-60
2022/02/12 01:35:47;;;;;;;5.20;1.60;;;;;;;1.13;87.44;101521.51;88188;1276;81822;-58
2022/02/12 01:37:57;;;;;;;4.00;1.60;;;;;;;1.16;87.50;101526.46;88151;1276;98736;-58
2022/02/12 01:40:09;;;;;;;3.70;2.00;;;;;;;1.19;87.48;101529.48;88142;1276;89277;-58
2022/02/12 01:42:19;;;;;;;3.30;1.80;;;;;;;1.18;87.38;101536.29;88173;1277;94798;-59
2022/02/12 01:44:39;;;;;;;3.70;1.90;;;;;;;1.19;87.40;101536.41;88141;1277;80246;-59
2022/02/12 01:46:44;;;;;;;3.60;1.80;;;;;;;1.21;87.26;101541.38;88191;1277;80399;-58
2022/02/12 01:48:51;;;;;;;4.40;2.40;;;;;;;1.15;87.34;101541.81;88171;1276;97533;-60
2022/02/12 01:50:57;;;;;;;4.80;2.10;;;;;;;1.10;87.33;101548.85;88178;1276;88592;-71
2022/02/12 01:53:06;;;;;;;6.50;2.00;;;;;;;1.13;87.19;101552.57;88130;1276;94793;-71
2022/02/12 01:55:12;;;;;;;3.70;2.30;;;;;;;1.07;87.20;101561.66;88145;1276;81214;-76
2022/02/12 01:57:21;;;;;;;4.00;1.70;;;;;;;1.05;87.14;101566.23;88152;1277;80981;-76
2022/02/12 01:59:31;;;;;;;3.30;1.60;;;;;;;0.99;87.17;101568.63;88163;1276;98244;-76
2022/02/12 02:01:37;;;;;;;4.30;1.90;;;;;;;0.97;87.03;101570.70;88108;1277;89659;-76
2022/02/12 02:03:46;;;;;;;5.50;1.90;;;;;;;0.94;87.06;101574.77;88113;1276;95909;-76
2022/02/12 02:05:55;;;;;;;2.50;1.50;;;;;;;0.91;87.14;101576.54;88121;1277;77928;-77
2022/02/12 02:08:01;;;;;;;5.20;1.90;;;;;;;0.94;87.21;101581.55;88123;1277;81714;-76
2022/02/12 02:10:12;;;;;;;5.00;2.00;;;;;;;0.91;87.29;101586.99;88066;1277;99053;-60
2022/02/12 02:12:18;;;;;;;3.80;1.70;;;;;;;0.88;87.12;101589.88;88201;1277;87847;-60
2022/02/12 02:14:32;;;;;;;4.30;1.80;;;;;;;0.86;87.01;101594.08;88071;1276;95634;-60
2022/02/12 02:16:42;;;;;;;4.20;1.80;;;;;;;0.85;86.83;101599.45;88168;1276;79633;-61
2022/02/12 02:18:48;;;;;;;3.60;1.70;;;;;;;0.81;86.91;101605.25;88141;1276;80953;-60
2022/02/12 02:20:54;;;;;;;3.20;1.80;;;;;;;0.80;86.92;101610.25;88143;1276;99613;-60
2022/02/12 02:23:00;;;;;;;6.20;1.90;;;;;;;0.79;86.93;101613.36;88149;1276;86931;-60
2022/02/12 02:25:07;;;;;;;4.10;1.70;;;;;;;0.78;87.02;101619.77;88138;1276;94970;-75
2022/02/12 02:27:15;;;;;;;3.10;1.50;;;;;;;0.80;87.02;101618.77;88155;1276;79138;-76
2022/02/12 02:29:21;;;;;;;3.80;2.00;;;;;;;0.85;87.02;101627.88;88177;1277;80166;-76
2022/02/12 02:31:30;;;;;;;3.50;1.90;;;;;;;0.85;86.98;101629.27;88151;1276;100053;-77
2022/02/12 02:33:36;;;;;;;4.00;1.70;;;;;;;0.86;86.93;101635.96;88179;1276;87593;-78
2022/02/12 02:35:45;;;;;;;4.00;2.00;;;;;;;0.81;86.91;101644.06;88146;1276;94264;-60
2022/02/12 02:37:51;;;;;;;6.00;1.90;;;;;;;0.79;86.79;101643.70;88139;1276;76175;-61
2022/02/12 02:39:57;;;;;;;4.30;1.50;;;;;;;0.70;86.71;101649.89;88191;1276;80215;-61
2022/02/12 02:42:04;;;;;;;4.00;1.80;;;;;;;0.59;86.58;101657.52;88136;1277;99239;-61
2022/02/12 02:44:10;;;;;;;2.90;1.50;;;;;;;0.44;86.57;101662.90;88159;1276;87971;-61
2022/02/12 02:46:16;;;;;;;3.90;1.80;;;;;;;0.30;86.37;101670.07;88088;1276;95589;-76
2022/02/12 02:48:22;;;;;;;5.80;1.90;;;;;;;0.19;86.56;101677.66;88081;1277;81257;-74
2022/02/12 02:57:49;;;;;;;5.20;2.20;;;;;;;-0.09;86.92;101700.40;88141;1277;96016;-58
2022/02/12 02:59:55;;;;;;;6.40;1.80;;;;;;;-0.10;86.83;101702.83;88144;1277;77230;-77
2022/02/12 03:02:01;;;;;;;4.90;2.30;;;;;;;-0.13;86.92;101708.68;88190;1277;80800;-77
2022/02/12 03:04:08;;;;;;;4.10;2.20;;;;;;;-0.16;86.88;101712.73;88156;1277;98699;-77
2022/02/12 03:06:18;;;;;;;6.80;2.40;;;;;;;-0.21;87.00;101716.54;88157;1276;87726;-61
2022/02/12 03:08:24;;;;;;;6.40;2.40;;;;;;;-0.24;87.02;101723.30;88137;1276;93881;-60
2022/02/12 03:10:34;;;;;;;9.80;3.70;;;;;;;-0.30;86.81;101725.61;88141;1276;79136;-76
2022/02/12 03:12:40;;;;;;;5.90;3.00;;;;;;;-0.39;87.00;101736.00;88134;1277;80130;-78
2022/02/12 03:14:50;;;;;;;4.50;2.20;;;;;;;-0.44;87.02;101733.85;88129;1277;99728;-61
2022/02/12 03:16:56;;;;;;;5.20;2.50;;;;;;;-0.47;87.13;101739.83;88133;1276;89196;-60
2022/02/12 03:19:03;;;;;;;6.00;2.50;;;;;;;-0.49;87.06;101744.56;88112;1276;95220;-61
2022/02/12 03:21:10;;;;;;;5.00;2.40;;;;;;;-0.50;87.11;101749.02;88109;1277;81860;-60
2022/02/12 03:23:19;;;;;;;4.60;2.30;;;;;;;-0.52;87.28;101756.57;88123;1277;80742;-65
2022/02/12 03:25:28;;;;;;;6.40;2.60;;;;;;;-0.54;87.21;101762.69;88112;1276;96686;-60
2022/02/12 03:27:35;;;;;;;5.60;3.00;;;;;;;-0.51;87.35;101765.38;88132;1276;88503;-60
2022/02/12 03:29:41;;;;;;;6.70;2.40;;;;;;;-0.50;87.35;101768.52;88124;1276;95788;-75
2022/02/12 03:31:51;;;;;;;6.30;2.60;;;;;;;-0.49;87.24;101768.11;88139;1276;77858;-78
2022/02/12 03:33:57;;;;;;;5.70;2.70;;;;;;;-0.53;87.22;101773.11;88137;1276;81145;-77
2022/02/12 03:36:04;;;;;;;5.00;2.80;;;;;;;-0.53;87.29;101779.64;87088;1276;1410124;-59
2022/02/12 03:38:13;;;;;;;5.40;2.60;;;;;;;-0.57;87.23;101780.23;88150;1276;88001;-60
2022/02/12 03:40:20;;;;;;;6.90;3.10;;;;;;;-0.63;87.41;101785.84;88143;1276;95117;-60
2022/02/12 03:42:29;;;;;;;6.90;2.80;;;;;;;-0.70;87.29;101789.05;88147;1276;80969;-60
2022/02/12 03:44:38;;;;;;;6.90;3.20;;;;;;;-0.76;87.35;101796.10;88109;1276;81498;-75
2022/02/12 03:46:45;;;;;;;4.60;3.20;;;;;;;-0.83;87.37;101801.45;88131;1276;99764;-76
2022/02/12 03:48:52;;;;;;;9.00;3.20;;;;;;;-0.87;87.36;101807.34;88141;1276;89039;-76
2022/02/12 03:50:59;;;;;;;5.50;3.20;;;;;;;-0.90;87.27;101811.00;88167;1276;93359;-76
2022/02/12 03:53:08;;;;;;;4.20;2.50;;;;;;;-0.89;87.47;101816.99;88161;1276;79832;-77
2022/02/12 03:55:14;;;;;;;7.30;3.00;;;;;;;-0.90;87.68;101817.93;88220;1276;80939;-76
2022/02/12 03:57:19;;;;;;;5.40;3.20;;;;;;;-0.90;87.56;101817.20;88148;1276;99524;-76
2022/02/12 03:59:25;;;;;;;4.60;2.10;;;;;;;-0.91;87.71;101819.21;88190;1276;90682;-77
2022/02/12 04:01:31;;;;;;;5.20;2.60;;;;;;;-0.95;87.63;101817.48;88116;1277;92327;-59
2022/02/12 04:03:37;;;;;;;8.00;2.70;;;;;;;-0.99;87.68;101824.73;88121;1277;77680;-58
2022/02/12 04:05:44;;;;;;;5.50;2.50;;;;;;;-1.00;87.62;101824.11;88171;1277;82717;-59
2022/02/12 04:07:49;;;;;;;7.10;2.60;;;;;;;-1.00;87.82;101824.81;88132;1276;99795;-59
2022/02/12 04:09:58;;;;;;;5.80;2.80;;;;;;;-1.03;87.78;101825.36;88196;1276;87891;-75
2022/02/12 04:12:04;;;;;;;4.60;2.40;;;;;;;-1.07;87.72;101827.50;88135;1276;95349;-76
2022/02/12 04:14:10;;;;;;;4.50;2.70;;;;;;;-1.11;87.61;101831.79;88145;1276;79315;-77
2022/02/12 04:16:15;;;;;;;4.80;2.40;;;;;;;-1.17;87.97;101839.14;88150;1276;80050;-59
2022/02/12 04:18:21;;;;;;;6.00;2.50;;;;;;;-1.22;87.75;101845.42;88106;1276;100442;-58
2022/02/12 04:20:27;;;;;;;4.20;2.60;;;;;;;-1.25;87.85;101841.86;88143;1276;88718;-58
2022/02/12 04:22:34;;;;;;;5.60;2.30;;;;;;;-1.26;88.01;101847.92;88110;1277;93930;-58
2022/02/12 04:24:40;;;;;;;4.90;2.60;;;;;;;-1.29;87.88;101848.64;88117;1276;78870;-58
2022/02/12 04:26:45;;;;;;;5.30;1.90;;;;;;;-1.30;87.88;101849.74;88131;1276;80940;-59
2022/02/12 04:28:52;;;;;;;8.40;3.30;;;;;;;-1.32;88.04;101857.80;88108;1276;99578;-58
2022/02/12 04:30:58;;;;;;;5.40;2.20;;;;;;;-1.30;87.96;101866.52;88169;1276;89448;-58
2022/02/12 04:33:07;;;;;;;5.70;1.90;;;;;;;-1.28;88.16;101868.56;88145;1276;95471;-58
2022/02/12 04:35:15;;;;;;;4.10;2.20;;;;;;;-1.30;88.06;101869.52;88140;1276;77361;-75
2022/02/12 04:37:22;;;;;;;4.30;1.70;;;;;;;-1.33;88.08;101869.85;88206;1276;81145;-75
2022/02/12 04:39:31;;;;;;;3.90;1.70;;;;;;;-1.35;88.17;101873.83;88160;1276;98400;-75
2022/02/12 04:41:41;;;;;;;5.90;1.90;;;;;;;-1.36;87.91;101880.45;88160;1276;88025;-76
2022/02/12 04:43:48;;;;;;;4.50;2.10;;;;;;;-1.40;88.00;101884.85;88166;1276;95402;-76
2022/02/12 04:45:54;;;;;;;5.50;2.10;;;;;;;-1.43;87.91;101888.73;88192;1276;80270;-75
2022/02/12 04:48:00;;;;;;;4.80;2.30;;;;;;;-1.44;88.04;101894.96;88180;1276;80296;-75
2022/02/12 04:50:11;;;;;;;4.10;2.10;;;;;;;-1.45;87.90;101889.93;88184;1277;97580;-58
2022/02/12 04:52:20;;;;;;;6.70;2.00;;;;;;;-1.49;88.07;101894.69;88161;1276;88948;-60
2022/02/12 04:54:29;;;;;;;4.40;2.00;;;;;;;-1.50;88.35;101900.06;88170;1276;95811;-57
2022/02/12 04:56:35;;;;;;;4.80;1.60;;;;;;;-1.51;88.24;101904.65;88134;1276;81439;-72
2022/02/12 04:58:44;;;;;;;3.70;2.00;;;;;;;-1.51;88.07;101897.27;88148;1276;81680;-76
2022/02/12 05:00:49;;;;;;;5.00;1.90;;;;;;;-1.53;88.42;101900.35;88191;1276;99170;-75
2022/02/12 05:02:55;;;;;;;5.70;1.90;;;;;;;-1.55;88.33;101904.36;88162;1276;87776;-76
2022/02/12 05:05:01;;;;;;;4.50;1.80;;;;;;;-1.55;88.27;101906.50;88072;1277;94634;-58
2022/02/12 05:07:07;;;;;;;4.30;1.90;;;;;;;-1.54;88.13;101904.13;88161;1276;78856;-57
2022/02/12 05:09:13;;;;;;;5.20;1.90;;;;;;;-1.57;88.14;101905.38;88157;1276;81700;-58
2022/02/12 05:11:19;;;;;;;5.80;2.20;;;;;;;-1.62;88.38;101907.02;88177;1276;98759;-78
2022/02/12 05:13:25;;;;;;;5.50;2.30;;;;;;;-1.70;88.26;101908.83;88137;1276;89219;-76
2022/02/12 05:15:30;;;;;;;4.50;1.80;;;;;;;-1.74;88.21;101913.78;88152;1276;95030;-77
2022/02/12 05:17:38;;;;;;;3.60;2.20;;;;;;;-1.80;88.41;101918.45;88157;1274;78764;-74
2022/02/12 05:19:44;;;;;;;5.00;2.00;;;;;;;-1.83;88.51;101922.48;88184;1276;82493;-58
2022/02/12 05:21:53;;;;;;;9.40;3.10;;;;;;;-1.85;88.24;101923.11;88174;1276;98499;-59
2022/02/12 05:23:59;;;;;;;7.30;2.60;;;;;;;-1.86;88.44;101927.41;88164;1276;87884;-59
2022/02/12 05:26:05;;;;;;;5.20;2.40;;;;;;;-1.87;88.39;101927.11;88145;1276;95807;-75
2022/02/12 05:28:11;;;;;;;7.00;2.80;;;;;;;-1.88;88.48;101930.53;88164;1276;80330;-75
2022/02/12 05:30:16;;;;;;;7.60;3.30;;;;;;;-1.88;88.38;101936.33;88172;1276;83617;-58
2022/02/12 05:32:22;;;;;;;5.40;2.70;;;;;;;-1.90;88.45;101940.52;88140;1276;100454;-58
2022/02/12 05:34:31;;;;;;;6.10;2.40;;;;;;;-1.91;88.44;101948.11;88171;1276;89078;-58
2022/02/12 05:36:36;;;;;;;5.70;2.50;;;;;;;-1.94;88.65;101950.90;88144;1276;95803;-57
2022/02/12 05:38:43;;;;;;;6.40;2.30;;;;;;;-1.93;88.56;101955.33;88173;1276;77525;-58
2022/02/12 05:40:51;;;;;;;6.10;2.60;;;;;;;-1.97;88.69;101963.78;88140;1276;80909;-59
2022/02/12 05:43:02;;;;;;;5.90;2.50;;;;;;;-2.01;88.64;101971.55;88147;1276;100399;-59
2022/02/12 05:45:12;;;;;;;7.90;3.00;;;;;;;-2.07;88.50;101976.27;88158;1276;87404;-58
2022/02/12 05:47:17;;;;;;;5.40;2.90;;;;;;;-2.08;88.42;101974.20;88151;1276;94262;-58
2022/02/12 05:49:23;;;;;;;9.80;3.00;;;;;;;-2.10;88.57;101976.22;88154;1276;81624;-59
2022/02/12 05:51:32;;;;;;;7.80;2.80;;;;;;;-2.10;88.55;101979.91;88132;1276;82005;-58
2022/02/12 05:53:39;;;;;;;6.30;3.10;;;;;;;-2.09;88.60;101985.70;88168;1276;98694;-63
2022/02/12 05:55:49;;;;;;;6.70;2.60;;;;;;;-2.06;88.60;101991.00;88169;1276;87926;-59
2022/02/12 05:57:59;;;;;;;7.10;2.60;;;;;;;-2.02;88.73;101988.21;88158;1276;95126;-59
2022/02/12 06:00:09;;;;;;;6.20;2.40;;;;;;;-1.97;88.87;101990.27;88138;1276;82338;-77
2022/02/12 06:02:14;;;;;;;6.30;2.60;;;;;;;-1.94;88.74;101992.94;88206;1276;81752;-75
2022/02/12 06:04:21;;;;;;;5.60;2.50;;;;;;;-1.91;88.68;102000.92;88193;1276;97231;-75
2022/02/12 06:06:29;;;;;;;6.20;2.50;;;;;;;-1.93;88.64;102002.42;88156;1276;88377;-58
2022/02/12 06:08:36;;;;;;;6.10;2.70;;;;;;;-1.95;88.81;102008.52;88168;1276;94814;-60
2022/02/12 06:10:44;;;;;;;7.60;3.00;;;;;;;-1.95;88.88;102012.23;88137;1276;79959;-60
2022/02/12 06:12:50;;;;;;;6.30;3.00;;;;;;;-1.95;88.65;102015.91;88184;1276;81409;-59
2022/02/12 06:14:59;;;;;;;7.30;2.50;;;;;;;-1.94;88.60;102019.41;88165;1276;98942;-77
2022/02/12 06:17:05;;;;;;;6.90;3.10;;;;;;;-1.95;88.76;102022.64;88109;1276;87816;-75
2022/02/12 06:19:11;;;;;;;5.70;2.60;;;;;;;-1.93;88.68;102027.29;88146;1276;95323;-76
2022/02/12 06:21:18;;;;;;;5.50;2.20;;;;;;;-1.90;88.64;102027.38;88124;1276;81055;-58
2022/02/12 06:23:26;;;;;;;5.70;2.20;;;;;;;-1.87;88.76;102032.17;88181;1276;82330;-58
2022/02/12 06:25:32;;;;;;;5.70;2.40;;;;;;;-1.84;88.75;102030.41;88176;1276;99739;-57
2022/02/12 06:27:38;;;;;;;5.80;2.50;;;;;;;-1.77;88.70;102025.36;88112;1276;88641;-59
2022/02/12 06:29:47;;;;;;;7.00;2.20;;;;;;;-1.72;88.66;102025.48;88141;1276;95144;-58
2022/02/12 06:31:54;;;;;;;5.90;2.60;;;;;;;-1.66;88.60;102020.06;88168;1276;77439;-59
2022/02/12 06:34:00;;;;;;;5.10;2.30;;;;;;;-1.64;88.63;102020.69;88158;1276;81511;-57
2022/02/12 06:36:09;;;;;;;5.30;3.00;;;;;;;-1.60;88.63;102016.06;88153;1276;100313;-59
2022/02/12 06:38:15;;;;;;;5.30;2.30;;;;;;;-1.56;88.81;102018.34;88174;1276;88772;-63
2022/02/12 06:40:21;;;;;;;6.90;3.10;;;;;;;-1.54;88.71;102017.54;88129;1276;95239;-75
2022/02/12 06:42:28;;;;;;;7.80;3.50;;;;;;;-1.55;88.68;102019.18;88171;1276;79516;-75
2022/02/12 06:44:34;;;;;;;4.70;2.40;;;;;;;-1.53;88.80;102020.67;88133;1276;82335;-58
2022/02/12 06:46:40;;;;;;;5.40;2.50;;;;;;;-1.50;88.67;102017.52;88164;1276;99702;-73
2022/02/12 06:48:46;;;;;;;4.90;2.60;;;;;;;-1.46;88.86;102015.05;88173;1276;88599;-75
2022/02/12 06:50:56;;;;;;;4.70;2.30;;;;;;;-1.37;88.85;102015.85;88133;1276;95864;-75
2022/02/12 06:53:05;;;;;;;8.90;3.40;;;;;;;-1.25;89.02;102012.95;88172;1276;79570;-75
2022/02/12 06:55:11;;;;;;;5.80;2.30;;;;;;;-1.05;88.92;102016.58;88181;1276;81262;-76
2022/02/12 06:57:19;;;;;;;8.20;3.20;;;;;;;-0.82;88.95;102021.23;88144;1276;97891;-74
2022/02/12 06:59:26;;;;;;;5.50;2.50;;;;;;;-0.64;89.33;102031.26;88154;1276;87652;-74
2022/02/12 07:01:32;;;;;;;7.00;2.40;;;;;;;-0.40;89.78;102042.60;88148;1276;93112;-60
2022/02/12 07:03:38;;;;;;;8.60;2.80;;;;;;;0.28;91.14;102048.48;88121;1276;79146;-60
2022/02/12 07:05:43;;;;;;;6.50;3.00;;;;;;;1.38;91.46;102048.92;88155;1276;79478;-60
2022/02/12 07:07:50;;;;;;;7.90;2.80;;;;;;;2.60;91.12;102050.76;88134;1276;99294;-59
2022/02/12 07:09:56;;;;;;;7.40;3.60;;;;;;;3.83;91.07;102042.09;88180;1276;88902;-59
2022/02/12 07:12:07;;;;;;;5.40;3.50;;;;;;;4.96;90.67;102040.86;88144;1276;95052;-64
2022/02/12 07:14:16;;;;;;;8.30;3.40;;;;;;;6.03;89.96;102045.68;88162;1276;78211;-61
2022/02/12 07:16:24;;;;;;;5.40;3.20;;;;;;;6.71;88.34;102050.60;88175;1276;83512;-71
2022/02/12 07:18:30;;;;;;;6.70;3.20;;;;;;;7.35;87.15;102054.09;88081;1276;100465;-68
2022/02/12 07:20:39;;;;;;;7.10;2.70;;;;;;;7.49;85.94;102059.30;88150;1276;89362;-60
2022/02/12 07:22:48;;;;;;;7.30;3.20;;;;;;;7.59;85.28;102061.54;88113;1276;94426;-60
2022/02/12 07:24:53;;;;;;;8.70;3.40;;;;;;;7.81;84.54;102067.73;88127;1276;79670;-61
2022/02/12 07:27:02;;;;;;;9.10;3.40;;;;;;;8.19;84.30;102070.64;88139;1276;81453;-60
2022/02/12 07:29:08;;;;;;;7.80;3.10;;;;;;;8.99;83.91;102068.95;88118;1276;99987;-60
2022/02/12 07:31:16;;;;;;;5.40;3.20;;;;;;;9.59;82.99;102070.32;88164;1276;88156;-60
2022/02/12 07:33:26;;;;;;;5.10;3.10;;;;;;;9.73;81.91;102073.33;88157;1276;95372;-61
2022/02/12 07:35:32;;;;;;;8.40;3.20;;;;;;;9.81;81.94;102077.08;88121;1276;79068;-59
2022/02/12 07:37:40;;;;;;;5.70;3.10;;;;;;;10.10;81.52;102077.92;88158;1276;82625;-60
2022/02/12 07:39:45;;;;;;;6.80;3.30;;;;;;;10.50;80.61;102079.71;88150;1276;98679;-71
2022/02/12 07:41:51;;;;;;;4.40;2.70;;;;;;;10.73;79.40;102082.86;88125;1276;89138;-73
2022/02/12 07:43:56;;;;;;;4.70;2.30;;;;;;;10.91;78.78;102090.95;88133;1276;94380;-74
2022/02/12 07:46:03;;;;;;;4.00;2.60;;;;;;;11.42;77.76;102087.21;88131;1276;77394;-60
2022/02/12 07:48:09;;;;;;;4.40;2.50;;;;;;;11.81;76.63;102088.02;88152;1276;82836;-60
2022/02/12 07:50:18;;;;;;;5.10;2.70;;;;;;;12.07;75.48;102091.12;88172;1276;98830;-75
2022/02/12 07:52:24;;;;;;;5.10;2.30;;;;;;;12.36;74.59;102101.99;88147;1276;87538;-76
2022/02/12 07:54:32;;;;;;;3.70;2.20;;;;;;;12.97;74.60;102103.55;88150;1276;94691;-76
2022/02/12 07:56:38;;;;;;;5.80;2.90;;;;;;;13.53;73.34;102110.54;88154;1276;77305;-76
2022/02/12 07:58:46;;;;;;;5.00;2.40;;;;;;;13.80;71.95;102112.27;88150;1276;82570;-76
2022/02/12 08:00:52;;;;;;;5.00;3.10;;;;;;;14.57;71.86;102114.59;88158;1276;99391;-76
2022/02/12 08:02:58;;;;;;;5.70;2.90;;;;;;;14.60;70.29;102116.04;88134;1276;89660;-77
2022/02/12 08:05:09;;;;;;;5.30;2.30;;;;;;;14.64;69.93;102116.37;88138;1276;95232;-77
2022/02/12 08:07:30;;;;;;;4.40;2.50;;;;;;;14.96;68.47;102118.34;88155;1276;78805;-77
2022/02/12 08:09:35;;;;;;;6.40;3.20;;;;;;;15.31;67.17;102113.83;88193;1276;81927;-74
2022/02/12 08:11:42;;;;;;;4.50;2.50;;;;;;;15.80;66.77;102111.45;88160;1276;100202;-76
2022/02/12 08:13:51;;;;;;;4.90;2.70;;;;;;;15.69;65.18;102115.31;88195;1276;89662;-75
2022/02/12 08:15:57;;;;;;;4.10;2.50;;;;;;;16.21;64.58;102114.90;88066;1276;95630;-76
2022/02/12 08:18:07;;;;;;;4.70;2.50;;;;;;;16.46;64.32;102117.84;88171;1276;78693;-76
2022/02/12 08:20:15;;;;;;;4.10;2.60;;;;;;;16.75;63.35;102119.77;88261;1276;79958;-61
2022/02/12 08:22:22;;;;;;;4.40;2.70;;;;;;;17.04;63.00;102124.16;88147;1276;99297;-60
2022/02/12 08:24:32;;;;;;;4.90;2.90;;;;;;;17.35;62.31;102124.45;88185;1277;87803;-61
2022/02/12 08:26:37;;;;;;;4.80;3.10;;;;;;;17.31;61.49;102130.24;88189;1276;94823;-78
2022/02/12 08:28:43;;;;;;;5.90;4.20;;;;;;;17.61;60.61;102140.46;88148;1276;78292;-78
2022/02/12 08:30:48;;;;;;;5.60;3.70;;;;;;;17.81;60.28;102136.70;88175;1276;82925;-60
2022/02/12 08:32:57;;;;;;;4.80;2.90;;;;;;;17.82;59.68;102134.69;88149;1276;98946;-60
2022/02/12 08:35:10;;;;;;;5.20;2.70;;;;;;;18.21;59.41;102138.42;88168;1277;88571;-78
2022/02/12 08:37:19;;;;;;;4.80;2.80;;;;;;;18.66;58.08;102141.05;88171;1276;95847;-80
2022/02/12 08:39:29;;;;;;;5.00;2.80;;;;;;;18.60;57.21;102150.27;88145;1276;80294;-80
2022/02/12 08:41:34;;;;;;;5.60;2.80;;;;;;;18.13;56.28;102158.98;88181;1276;82683;-79
2022/02/12 08:43:40;;;;;;;5.00;2.80;;;;;;;17.86;55.68;102166.23;88168;1277;98646;-78
2022/02/12 08:45:46;;;;;;;4.30;2.30;;;;;;;17.57;55.40;102176.46;88149;1276;90577;-79
2022/02/12 08:47:52;;;;;;;4.10;2.50;;;;;;;17.35;55.24;102176.32;88165;1277;94364;-80
2022/02/12 08:50:00;;;;;;;4.70;2.30;;;;;;;17.27;54.50;102176.08;88145;1276;79423;-79
2022/02/12 08:52:10;;;;;;;4.50;2.50;;;;;;;16.65;54.86;102173.90;88167;1276;80255;-80
2022/02/12 08:54:16;;;;;;;4.60;2.70;;;;;;;16.69;54.71;102171.59;88178;1277;100474;-81
2022/02/12 08:56:24;;;;;;;4.10;2.20;;;;;;;16.66;53.96;102174.48;88176;1276;87400;-61
2022/02/12 08:58:29;;;;;;;3.90;2.30;;;;;;;16.76;54.35;102177.66;88155;1276;95386;-61
2022/02/12 09:00:35;;;;;;;4.30;2.70;;;;;;;16.90;53.69;102183.17;88170;1276;77706;-61
2022/02/12 09:02:45;;;;;;;4.80;2.90;;;;;;;16.90;53.76;102181.73;88171;1276;80541;-61
2022/02/12 09:04:51;;;;;;;4.20;2.90;;;;;;;17.05;53.71;102187.92;88192;1276;99853;-61
2022/02/12 09:06:59;;;;;;;5.10;3.20;;;;;;;17.16;53.59;102190.52;88155;1276;88122;-60
2022/02/12 09:09:08;;;;;;;3.90;2.50;;;;;;;16.98;52.96;102196.02;88172;1276;94460;-60
2022/02/12 09:11:14;;;;;;;3.90;2.40;;;;;;;16.75;52.73;102193.23;88175;1276;78687;-80
2022/02/12 09:13:23;;;;;;;4.50;3.00;;;;;;;16.82;52.45;102194.63;88151;1276;81824;-80
2022/02/12 09:15:31;;;;;;;3.90;2.60;;;;;;;16.89;51.94;102195.12;88176;1276;98818;-78
2022/02/12 09:17:37;;;;;;;5.00;2.20;;;;;;;16.75;52.15;102193.44;88153;1276;87168;-78
2022/02/12 09:19:43;;;;;;;3.80;2.20;;;;;;;16.90;52.38;102197.95;88178;1276;95407;-79
2022/02/12 09:21:49;;;;;;;4.10;2.10;;;;;;;17.15;51.97;102199.36;88147;1276;78385;-80
2022/02/12 09:23:55;;;;;;;4.00;2.30;;;;;;;17.40;50.65;102195.92;88159;1276;80916;-78
2022/02/12 09:26:00;;;;;;;4.00;2.70;;;;;;;17.34;50.76;102200.85;88159;1276;99777;-60
2022/02/12 09:28:06;;;;;;;3.80;2.70;;;;;;;17.18;50.93;102204.29;88164;1276;89022;-61
2022/02/12 09:30:15;;;;;;;4.80;2.70;;;;;;;16.52;50.76;102206.72;88161;1276;94174;-77
2022/02/12 09:32:21;;;;;;;3.60;2.70;;;;;;;16.34;50.23;102210.62;88153;1276;78801;-79
2022/02/12 09:34:31;;;;;;;4.50;2.70;;;;;;;16.32;50.64;102211.73;88185;1276;80874;-79
2022/02/12 09:36:41;;;;;;;4.60;2.60;;;;;;;16.56;49.74;102206.15;88179;1276;100271;-61
2022/02/12 09:38:50;;;;;;;4.40;2.00;;;;;;;16.53;48.73;102208.31;88151;1276;88858;-62
2022/02/12 09:40:58;;;;;;;3.60;2.20;;;;;;;16.54;48.76;102216.34;88158;1276;95912;-80
2022/02/12 09:43:05;;;;;;;4.00;2.30;;;;;;;16.73;49.14;102214.10;88165;1276;79033;-79
2022/02/12 09:45:15;;;;;;;3.70;2.10;;;;;;;16.62;48.80;102223.93;88189;1276;81991;-80
2022/02/12 09:47:45;;;;;;;3.20;2.50;;;;;;;16.20;48.88;102230.27;88150;1276;99280;-80
2022/02/12 09:49:53;;;;;;;4.00;2.20;;;;;;;16.02;48.21;102239.02;88106;1276;86810;-69
2022/02/12 09:52:00;;;;;;;2.80;1.90;;;;;;;15.86;47.53;102246.09;88185;1276;94651;-70
2022/02/12 09:54:06;;;;;;;2.60;1.80;;;;;;;15.38;47.20;102250.68;88150;1276;79827;-60
2022/02/12 09:56:15;;;;;;;3.40;2.00;;;;;;;15.23;48.18;102251.67;88194;1276;83749;-60
2022/02/12 09:58:21;;;;;;;4.30;2.00;;;;;;;15.23;48.02;102248.71;88182;1276;99715;-61
2022/02/12 10:00:26;;;;;;;3.10;2.00;;;;;;;15.24;47.56;102248.30;88164;1276;89088;-80
2022/02/12 10:02:32;;;;;;;3.80;2.10;;;;;;;15.08;47.64;102250.33;88173;1276;95588;-80